sensor_id;sensor_type;location;lat;lon;timestamp;P1;durP1;ratioP1;P2;durP2;ratioP2
76423;SDS011;65257;52.104;4.268;2024-01-07T00:00:34;11.52;;;5.00;;
76423;SDS011;65257;52.104;4.268;2024-01-07T00:03:00;8.60;;;4.90;;
76423;SDS011;65257;52.104;4.268;2024-01-07T00:05:28;7.40;;;5.15;;
76423;SDS011;65257;52.104;4.268;2024-01-07T00:07:54;9.25;;;5.88;;
76423;SDS011;65257;52.104;4.268;2024-01-07T00:10:19;10.63;;;5.88;;
76423;SDS011;65257;52.104;4.268;2024-01-07T00:12:45;11.27;;;5.43;;
76423;SDS011;65257;52.104;4.268;2024-01-07T00:15:10;9.98;;;4.70;;
76423;SDS011;65257;52.104;4.268;2024-01-07T00:17:35;8.65;;;5.40;;
76423;SDS011;65257;52.104;4.268;2024-01-07T00:20:07;10.55;;;6.47;;
76423;SDS011;65257;52.104;4.268;2024-01-07T00:22:33;9.75;;;5.63;;
76423;SDS011;65257;52.104;4.268;2024-01-07T00:24:58;7.72;;;4.95;;
76423;SDS011;65257;52.104;4.268;2024-01-07T00:27:24;9.15;;;5.63;;
76423;SDS011;65257;52.104;4.268;2024-01-07T00:29:49;12.82;;;6.65;;
76423;SDS011;65257;52.104;4.268;2024-01-07T00:32:15;11.68;;;5.85;;
76423;SDS011;65257;52.104;4.268;2024-01-07T00:34:46;9.60;;;6.55;;
76423;SDS011;65257;52.104;4.268;2024-01-07T00:37:12;10.00;;;5.72;;
76423;SDS011;65257;52.104;4.268;2024-01-07T00:39:37;10.25;;;6.38;;
76423;SDS011;65257;52.104;4.268;2024-01-07T00:42:03;13.98;;;6.60;;
76423;SDS011;65257;52.104;4.268;2024-01-07T00:44:34;11.77;;;6.53;;
76423;SDS011;65257;52.104;4.268;2024-01-07T00:47:02;11.48;;;5.47;;
76423;SDS011;65257;52.104;4.268;2024-01-07T00:49:28;10.48;;;5.40;;
76423;SDS011;65257;52.104;4.268;2024-01-07T00:51:53;9.48;;;6.45;;
76423;SDS011;65257;52.104;4.268;2024-01-07T00:54:19;7.70;;;5.03;;
76423;SDS011;65257;52.104;4.268;2024-01-07T00:56:45;10.60;;;7.28;;
76423;SDS011;65257;52.104;4.268;2024-01-07T00:59:10;10.90;;;6.45;;
76423;SDS011;65257;52.104;4.268;2024-01-07T01:01:36;8.48;;;4.82;;
76423;SDS011;65257;52.104;4.268;2024-01-07T01:04:01;9.15;;;4.43;;
76423;SDS011;65257;52.104;4.268;2024-01-07T01:06:26;10.80;;;5.93;;
76423;SDS011;65257;52.104;4.268;2024-01-07T01:08:55;12.18;;;6.63;;
76423;SDS011;65257;52.104;4.268;2024-01-07T01:11:20;10.20;;;6.20;;
76423;SDS011;65257;52.104;4.268;2024-01-07T01:13:45;8.57;;;5.65;;
76423;SDS011;65257;52.104;4.268;2024-01-07T01:16:11;8.05;;;5.22;;
76423;SDS011;65257;52.104;4.268;2024-01-07T01:18:36;8.68;;;5.47;;
76423;SDS011;65257;52.104;4.268;2024-01-07T01:21:04;10.02;;;6.00;;
76423;SDS011;65257;52.104;4.268;2024-01-07T01:23:33;9.93;;;6.63;;
76423;SDS011;65257;52.104;4.268;2024-01-07T01:25:58;11.25;;;6.53;;
76423;SDS011;65257;52.104;4.268;2024-01-07T01:28:30;8.88;;;5.82;;
76423;SDS011;65257;52.104;4.268;2024-01-07T01:31:01;9.15;;;5.28;;
76423;SDS011;65257;52.104;4.268;2024-01-07T01:33:27;9.43;;;5.05;;
76423;SDS011;65257;52.104;4.268;2024-01-07T01:35:52;7.65;;;5.32;;
76423;SDS011;65257;52.104;4.268;2024-01-07T01:38:17;11.35;;;6.32;;
76423;SDS011;65257;52.104;4.268;2024-01-07T01:40:43;10.60;;;5.78;;
76423;SDS011;65257;52.104;4.268;2024-01-07T01:43:08;9.35;;;5.88;;
76423;SDS011;65257;52.104;4.268;2024-01-07T01:45:33;9.10;;;6.13;;
76423;SDS011;65257;52.104;4.268;2024-01-07T01:47:59;8.30;;;5.28;;
76423;SDS011;65257;52.104;4.268;2024-01-07T01:50:25;10.02;;;6.53;;
76423;SDS011;65257;52.104;4.268;2024-01-07T01:52:51;10.15;;;6.72;;
76423;SDS011;65257;52.104;4.268;2024-01-07T01:55:21;9.70;;;6.30;;
76423;SDS011;65257;52.104;4.268;2024-01-07T01:57:46;11.02;;;6.90;;
76423;SDS011;65257;52.104;4.268;2024-01-07T02:00:13;7.72;;;5.70;;
76423;SDS011;65257;52.104;4.268;2024-01-07T02:02:39;6.50;;;4.63;;
76423;SDS011;65257;52.104;4.268;2024-01-07T02:05:04;11.70;;;7.57;;
76423;SDS011;65257;52.104;4.268;2024-01-07T02:07:30;10.73;;;5.97;;
76423;SDS011;65257;52.104;4.268;2024-01-07T02:09:56;11.13;;;6.03;;
76423;SDS011;65257;52.104;4.268;2024-01-07T02:12:22;12.60;;;7.30;;
76423;SDS011;65257;52.104;4.268;2024-01-07T02:14:47;13.02;;;6.43;;
76423;SDS011;65257;52.104;4.268;2024-01-07T02:17:13;9.95;;;6.40;;
76423;SDS011;65257;52.104;4.268;2024-01-07T02:19:39;10.68;;;5.93;;
76423;SDS011;65257;52.104;4.268;2024-01-07T02:22:04;10.65;;;6.70;;
76423;SDS011;65257;52.104;4.268;2024-01-07T02:24:36;12.07;;;8.45;;
76423;SDS011;65257;52.104;4.268;2024-01-07T02:27:05;10.77;;;6.90;;
76423;SDS011;65257;52.104;4.268;2024-01-07T02:29:30;11.73;;;7.53;;
76423;SDS011;65257;52.104;4.268;2024-01-07T02:31:55;10.32;;;6.43;;
76423;SDS011;65257;52.104;4.268;2024-01-07T02:34:24;12.00;;;6.55;;
76423;SDS011;65257;52.104;4.268;2024-01-07T02:36:52;12.77;;;6.97;;
76423;SDS011;65257;52.104;4.268;2024-01-07T02:39:18;10.52;;;5.95;;
76423;SDS011;65257;52.104;4.268;2024-01-07T02:41:44;13.77;;;7.22;;
76423;SDS011;65257;52.104;4.268;2024-01-07T02:44:13;16.23;;;9.07;;
76423;SDS011;65257;52.104;4.268;2024-01-07T02:46:44;11.05;;;6.50;;
76423;SDS011;65257;52.104;4.268;2024-01-07T02:49:11;13.07;;;7.25;;
76423;SDS011;65257;52.104;4.268;2024-01-07T02:51:37;12.85;;;7.15;;
76423;SDS011;65257;52.104;4.268;2024-01-07T02:54:03;14.20;;;8.27;;
76423;SDS011;65257;52.104;4.268;2024-01-07T02:56:37;12.60;;;7.13;;
76423;SDS011;65257;52.104;4.268;2024-01-07T02:59:02;7.35;;;4.25;;
76423;SDS011;65257;52.104;4.268;2024-01-07T03:01:28;10.40;;;6.53;;
76423;SDS011;65257;52.104;4.268;2024-01-07T03:03:53;12.00;;;7.47;;
76423;SDS011;65257;52.104;4.268;2024-01-07T03:06:18;11.75;;;7.10;;
76423;SDS011;65257;52.104;4.268;2024-01-07T03:08:44;11.63;;;7.13;;
76423;SDS011;65257;52.104;4.268;2024-01-07T03:11:09;8.63;;;5.97;;
76423;SDS011;65257;52.104;4.268;2024-01-07T03:13:39;8.40;;;5.60;;
76423;SDS011;65257;52.104;4.268;2024-01-07T03:16:05;10.10;;;6.82;;
76423;SDS011;65257;52.104;4.268;2024-01-07T03:21:16;7.07;;;4.13;;
76423;SDS011;65257;52.104;4.268;2024-01-07T03:23:48;12.43;;;6.28;;
76423;SDS011;65257;52.104;4.268;2024-01-07T03:26:20;9.10;;;5.20;;
76423;SDS011;65257;52.104;4.268;2024-01-07T03:28:46;10.45;;;5.57;;
76423;SDS011;65257;52.104;4.268;2024-01-07T03:31:12;12.25;;;7.43;;
76423;SDS011;65257;52.104;4.268;2024-01-07T03:33:39;10.48;;;7.68;;
76423;SDS011;65257;52.104;4.268;2024-01-07T03:36:12;10.60;;;5.72;;
76423;SDS011;65257;52.104;4.268;2024-01-07T03:38:39;9.60;;;5.40;;
76423;SDS011;65257;52.104;4.268;2024-01-07T03:41:06;9.75;;;5.63;;
76423;SDS011;65257;52.104;4.268;2024-01-07T03:43:32;12.07;;;7.43;;
76423;SDS011;65257;52.104;4.268;2024-01-07T03:46:00;10.45;;;6.72;;
76423;SDS011;65257;52.104;4.268;2024-01-07T03:48:26;10.70;;;6.63;;
76423;SDS011;65257;52.104;4.268;2024-01-07T03:50:51;15.65;;;8.02;;
76423;SDS011;65257;52.104;4.268;2024-01-07T03:53:17;12.25;;;6.93;;
76423;SDS011;65257;52.104;4.268;2024-01-07T03:55:43;11.15;;;7.43;;
76423;SDS011;65257;52.104;4.268;2024-01-07T03:58:09;12.10;;;6.93;;
76423;SDS011;65257;52.104;4.268;2024-01-07T04:00:40;11.25;;;7.22;;
76423;SDS011;65257;52.104;4.268;2024-01-07T04:03:05;11.15;;;7.07;;
76423;SDS011;65257;52.104;4.268;2024-01-07T04:05:31;11.70;;;6.32;;
76423;SDS011;65257;52.104;4.268;2024-01-07T04:07:58;11.07;;;6.97;;
76423;SDS011;65257;52.104;4.268;2024-01-07T04:10:27;6.88;;;4.47;;
76423;SDS011;65257;52.104;4.268;2024-01-07T04:12:53;11.55;;;6.82;;
76423;SDS011;65257;52.104;4.268;2024-01-07T04:15:19;11.98;;;7.45;;
76423;SDS011;65257;52.104;4.268;2024-01-07T04:17:48;8.43;;;5.30;;
76423;SDS011;65257;52.104;4.268;2024-01-07T04:22:41;13.25;;;7.03;;
76423;SDS011;65257;52.104;4.268;2024-01-07T04:25:07;9.38;;;4.88;;
76423;SDS011;65257;52.104;4.268;2024-01-07T04:27:34;12.77;;;7.35;;
76423;SDS011;65257;52.104;4.268;2024-01-07T04:30:00;9.57;;;5.95;;
76423;SDS011;65257;52.104;4.268;2024-01-07T04:32:27;10.95;;;6.88;;
76423;SDS011;65257;52.104;4.268;2024-01-07T04:34:53;11.25;;;6.88;;
76423;SDS011;65257;52.104;4.268;2024-01-07T04:37:18;10.85;;;7.07;;
76423;SDS011;65257;52.104;4.268;2024-01-07T04:39:49;11.77;;;6.90;;
76423;SDS011;65257;52.104;4.268;2024-01-07T04:42:24;15.02;;;7.30;;
76423;SDS011;65257;52.104;4.268;2024-01-07T04:44:49;10.55;;;7.10;;
76423;SDS011;65257;52.104;4.268;2024-01-07T04:47:29;12.82;;;7.60;;
76423;SDS011;65257;52.104;4.268;2024-01-07T04:49:56;11.27;;;6.70;;
76423;SDS011;65257;52.104;4.268;2024-01-07T04:52:25;8.23;;;4.78;;
76423;SDS011;65257;52.104;4.268;2024-01-07T04:54:51;11.77;;;7.30;;
76423;SDS011;65257;52.104;4.268;2024-01-07T04:57:18;9.07;;;6.10;;
76423;SDS011;65257;52.104;4.268;2024-01-07T04:59:53;11.90;;;6.57;;
76423;SDS011;65257;52.104;4.268;2024-01-07T05:02:18;13.00;;;6.13;;
76423;SDS011;65257;52.104;4.268;2024-01-07T05:04:44;12.15;;;7.05;;
76423;SDS011;65257;52.104;4.268;2024-01-07T05:07:09;12.85;;;7.63;;
76423;SDS011;65257;52.104;4.268;2024-01-07T05:09:38;11.48;;;6.72;;
76423;SDS011;65257;52.104;4.268;2024-01-07T05:12:14;13.45;;;6.97;;
76423;SDS011;65257;52.104;4.268;2024-01-07T05:17:06;11.77;;;6.60;;
76423;SDS011;65257;52.104;4.268;2024-01-07T05:19:39;7.20;;;5.00;;
76423;SDS011;65257;52.104;4.268;2024-01-07T05:24:51;10.05;;;6.45;;
76423;SDS011;65257;52.104;4.268;2024-01-07T05:27:17;9.75;;;6.38;;
76423;SDS011;65257;52.104;4.268;2024-01-07T05:29:45;9.82;;;7.03;;
76423;SDS011;65257;52.104;4.268;2024-01-07T05:32:16;10.68;;;7.15;;
76423;SDS011;65257;52.104;4.268;2024-01-07T05:34:43;10.95;;;7.35;;
76423;SDS011;65257;52.104;4.268;2024-01-07T05:37:08;6.90;;;4.28;;
76423;SDS011;65257;52.104;4.268;2024-01-07T05:39:36;7.72;;;4.85;;
76423;SDS011;65257;52.104;4.268;2024-01-07T05:42:01;9.27;;;6.40;;
76423;SDS011;65257;52.104;4.268;2024-01-07T05:44:27;11.82;;;7.20;;
76423;SDS011;65257;52.104;4.268;2024-01-07T05:46:52;7.97;;;4.80;;
76423;SDS011;65257;52.104;4.268;2024-01-07T05:49:18;9.25;;;6.60;;
76423;SDS011;65257;52.104;4.268;2024-01-07T05:51:43;11.15;;;6.97;;
76423;SDS011;65257;52.104;4.268;2024-01-07T05:54:09;10.80;;;7.57;;
76423;SDS011;65257;52.104;4.268;2024-01-07T05:56:41;9.73;;;6.00;;
76423;SDS011;65257;52.104;4.268;2024-01-07T05:59:06;10.30;;;6.60;;
76423;SDS011;65257;52.104;4.268;2024-01-07T06:01:32;10.30;;;7.03;;
76423;SDS011;65257;52.104;4.268;2024-01-07T06:04:01;10.15;;;5.75;;
76423;SDS011;65257;52.104;4.268;2024-01-07T06:06:26;10.60;;;6.95;;
76423;SDS011;65257;52.104;4.268;2024-01-07T06:08:51;12.00;;;7.30;;
76423;SDS011;65257;52.104;4.268;2024-01-07T06:11:17;10.93;;;7.25;;
76423;SDS011;65257;52.104;4.268;2024-01-07T06:13:45;12.30;;;7.72;;
76423;SDS011;65257;52.104;4.268;2024-01-07T06:16:17;11.15;;;6.93;;
76423;SDS011;65257;52.104;4.268;2024-01-07T06:18:42;9.95;;;5.97;;
76423;SDS011;65257;52.104;4.268;2024-01-07T06:21:10;14.23;;;7.50;;
76423;SDS011;65257;52.104;4.268;2024-01-07T06:23:38;11.65;;;7.47;;
76423;SDS011;65257;52.104;4.268;2024-01-07T06:26:04;10.75;;;7.85;;
76423;SDS011;65257;52.104;4.268;2024-01-07T06:28:31;10.98;;;7.03;;
76423;SDS011;65257;52.104;4.268;2024-01-07T06:30:58;10.77;;;6.68;;
76423;SDS011;65257;52.104;4.268;2024-01-07T06:33:23;11.77;;;6.88;;
76423;SDS011;65257;52.104;4.268;2024-01-07T06:35:50;11.48;;;7.70;;
76423;SDS011;65257;52.104;4.268;2024-01-07T06:38:16;10.63;;;7.30;;
76423;SDS011;65257;52.104;4.268;2024-01-07T06:40:41;12.65;;;8.18;;
76423;SDS011;65257;52.104;4.268;2024-01-07T06:43:06;12.52;;;7.65;;
76423;SDS011;65257;52.104;4.268;2024-01-07T06:45:35;12.38;;;8.13;;
76423;SDS011;65257;52.104;4.268;2024-01-07T06:48:03;11.05;;;7.10;;
76423;SDS011;65257;52.104;4.268;2024-01-07T06:50:29;14.00;;;8.45;;
76423;SDS011;65257;52.104;4.268;2024-01-07T06:52:58;11.77;;;7.90;;
76423;SDS011;65257;52.104;4.268;2024-01-07T06:55:26;14.27;;;8.55;;
76423;SDS011;65257;52.104;4.268;2024-01-07T06:57:51;11.40;;;7.22;;
76423;SDS011;65257;52.104;4.268;2024-01-07T07:00:17;12.05;;;7.93;;
76423;SDS011;65257;52.104;4.268;2024-01-07T07:02:43;13.60;;;9.13;;
76423;SDS011;65257;52.104;4.268;2024-01-07T07:05:11;13.30;;;7.77;;
76423;SDS011;65257;52.104;4.268;2024-01-07T07:07:40;14.55;;;9.55;;
76423;SDS011;65257;52.104;4.268;2024-01-07T07:10:05;12.60;;;7.70;;
76423;SDS011;65257;52.104;4.268;2024-01-07T07:12:31;16.65;;;10.43;;
76423;SDS011;65257;52.104;4.268;2024-01-07T07:14:59;13.93;;;8.57;;
76423;SDS011;65257;52.104;4.268;2024-01-07T07:17:25;12.60;;;8.15;;
76423;SDS011;65257;52.104;4.268;2024-01-07T07:19:50;13.90;;;8.45;;
76423;SDS011;65257;52.104;4.268;2024-01-07T07:22:18;17.27;;;9.00;;
76423;SDS011;65257;52.104;4.268;2024-01-07T07:24:47;12.90;;;7.82;;
76423;SDS011;65257;52.104;4.268;2024-01-07T07:27:18;14.27;;;7.80;;
76423;SDS011;65257;52.104;4.268;2024-01-07T07:29:43;16.02;;;8.50;;
76423;SDS011;65257;52.104;4.268;2024-01-07T07:32:09;10.13;;;7.18;;
76423;SDS011;65257;52.104;4.268;2024-01-07T07:34:37;14.45;;;7.60;;
76423;SDS011;65257;52.104;4.268;2024-01-07T07:37:03;15.07;;;7.32;;
76423;SDS011;65257;52.104;4.268;2024-01-07T07:39:29;11.45;;;6.95;;
76423;SDS011;65257;52.104;4.268;2024-01-07T07:41:56;13.15;;;7.93;;
76423;SDS011;65257;52.104;4.268;2024-01-07T07:44:21;13.15;;;7.25;;
76423;SDS011;65257;52.104;4.268;2024-01-07T07:46:47;13.27;;;8.52;;
76423;SDS011;65257;52.104;4.268;2024-01-07T07:49:12;11.35;;;7.15;;
76423;SDS011;65257;52.104;4.268;2024-01-07T07:51:52;9.00;;;4.82;;
76423;SDS011;65257;52.104;4.268;2024-01-07T07:54:17;12.27;;;6.30;;
76423;SDS011;65257;52.104;4.268;2024-01-07T07:56:43;10.25;;;5.25;;
76423;SDS011;65257;52.104;4.268;2024-01-07T07:59:11;5.00;;;3.35;;
76423;SDS011;65257;52.104;4.268;2024-01-07T08:01:40;9.30;;;5.97;;
76423;SDS011;65257;52.104;4.268;2024-01-07T08:04:05;12.93;;;7.05;;
76423;SDS011;65257;52.104;4.268;2024-01-07T08:06:31;9.32;;;5.20;;
76423;SDS011;65257;52.104;4.268;2024-01-07T08:08:57;9.70;;;4.90;;
76423;SDS011;65257;52.104;4.268;2024-01-07T08:11:23;10.90;;;6.43;;
76423;SDS011;65257;52.104;4.268;2024-01-07T08:13:53;7.85;;;4.80;;
76423;SDS011;65257;52.104;4.268;2024-01-07T08:16:21;10.70;;;6.15;;
76423;SDS011;65257;52.104;4.268;2024-01-07T08:18:46;11.88;;;6.63;;
76423;SDS011;65257;52.104;4.268;2024-01-07T08:21:12;10.02;;;5.75;;
76423;SDS011;65257;52.104;4.268;2024-01-07T08:23:41;10.75;;;6.30;;
76423;SDS011;65257;52.104;4.268;2024-01-07T08:26:07;8.05;;;5.05;;
76423;SDS011;65257;52.104;4.268;2024-01-07T08:28:33;7.00;;;5.15;;
76423;SDS011;65257;52.104;4.268;2024-01-07T08:30:58;10.93;;;6.20;;
76423;SDS011;65257;52.104;4.268;2024-01-07T08:33:23;8.60;;;5.70;;
76423;SDS011;65257;52.104;4.268;2024-01-07T08:35:50;13.73;;;10.95;;
76423;SDS011;65257;52.104;4.268;2024-01-07T08:38:15;9.20;;;6.03;;
76423;SDS011;65257;52.104;4.268;2024-01-07T08:40:41;9.00;;;5.38;;
76423;SDS011;65257;52.104;4.268;2024-01-07T08:43:06;9.35;;;5.40;;
76423;SDS011;65257;52.104;4.268;2024-01-07T08:45:31;7.95;;;5.18;;
76423;SDS011;65257;52.104;4.268;2024-01-07T08:47:57;9.50;;;5.90;;
76423;SDS011;65257;52.104;4.268;2024-01-07T08:50:22;7.63;;;4.32;;
76423;SDS011;65257;52.104;4.268;2024-01-07T08:52:48;12.43;;;5.97;;
76423;SDS011;65257;52.104;4.268;2024-01-07T08:55:13;5.50;;;3.58;;
76423;SDS011;65257;52.104;4.268;2024-01-07T08:57:44;10.75;;;6.40;;
76423;SDS011;65257;52.104;4.268;2024-01-07T09:00:17;8.60;;;5.80;;
76423;SDS011;65257;52.104;4.268;2024-01-07T09:02:42;6.72;;;4.15;;
76423;SDS011;65257;52.104;4.268;2024-01-07T09:05:11;7.20;;;4.47;;
76423;SDS011;65257;52.104;4.268;2024-01-07T09:07:42;6.57;;;3.83;;
76423;SDS011;65257;52.104;4.268;2024-01-07T09:10:08;6.50;;;3.50;;
76423;SDS011;65257;52.104;4.268;2024-01-07T09:12:35;6.70;;;4.57;;
76423;SDS011;65257;52.104;4.268;2024-01-07T09:15:02;5.78;;;4.20;;
76423;SDS011;65257;52.104;4.268;2024-01-07T09:17:38;6.13;;;3.17;;
76423;SDS011;65257;52.104;4.268;2024-01-07T09:20:09;6.80;;;3.92;;
76423;SDS011;65257;52.104;4.268;2024-01-07T09:22:36;8.68;;;5.32;;
76423;SDS011;65257;52.104;4.268;2024-01-07T09:25:05;6.97;;;4.07;;
76423;SDS011;65257;52.104;4.268;2024-01-07T09:27:31;6.53;;;4.15;;
76423;SDS011;65257;52.104;4.268;2024-01-07T09:30:04;7.05;;;4.35;;
76423;SDS011;65257;52.104;4.268;2024-01-07T09:32:37;4.55;;;2.70;;
76423;SDS011;65257;52.104;4.268;2024-01-07T09:35:02;11.57;;;5.78;;
76423;SDS011;65257;52.104;4.268;2024-01-07T09:37:30;8.85;;;4.72;;
76423;SDS011;65257;52.104;4.268;2024-01-07T09:39:56;7.15;;;5.10;;
76423;SDS011;65257;52.104;4.268;2024-01-07T09:42:21;5.30;;;3.65;;
76423;SDS011;65257;52.104;4.268;2024-01-07T09:44:47;6.40;;;3.45;;
76423;SDS011;65257;52.104;4.268;2024-01-07T09:47:17;6.18;;;4.25;;
76423;SDS011;65257;52.104;4.268;2024-01-07T09:49:43;9.07;;;4.40;;
76423;SDS011;65257;52.104;4.268;2024-01-07T09:52:10;7.53;;;3.33;;
76423;SDS011;65257;52.104;4.268;2024-01-07T09:54:37;4.72;;;3.45;;
76423;SDS011;65257;52.104;4.268;2024-01-07T09:57:04;8.05;;;4.25;;
76423;SDS011;65257;52.104;4.268;2024-01-07T09:59:31;7.75;;;4.88;;
76423;SDS011;65257;52.104;4.268;2024-01-07T10:02:01;8.18;;;4.82;;
76423;SDS011;65257;52.104;4.268;2024-01-07T10:04:30;8.20;;;4.28;;
76423;SDS011;65257;52.104;4.268;2024-01-07T10:06:56;6.82;;;4.60;;
76423;SDS011;65257;52.104;4.268;2024-01-07T10:09:23;5.30;;;3.17;;
76423;SDS011;65257;52.104;4.268;2024-01-07T10:11:56;7.05;;;4.30;;
76423;SDS011;65257;52.104;4.268;2024-01-07T10:14:24;8.93;;;5.80;;
76423;SDS011;65257;52.104;4.268;2024-01-07T10:16:51;7.38;;;4.13;;
76423;SDS011;65257;52.104;4.268;2024-01-07T10:19:23;10.13;;;5.25;;
76423;SDS011;65257;52.104;4.268;2024-01-07T10:22:02;7.82;;;5.30;;
76423;SDS011;65257;52.104;4.268;2024-01-07T10:24:35;6.60;;;4.65;;
76423;SDS011;65257;52.104;4.268;2024-01-07T10:27:04;8.98;;;5.40;;
76423;SDS011;65257;52.104;4.268;2024-01-07T10:29:34;6.43;;;3.85;;
76423;SDS011;65257;52.104;4.268;2024-01-07T10:32:03;9.27;;;4.00;;
76423;SDS011;65257;52.104;4.268;2024-01-07T10:34:36;6.78;;;4.60;;
76423;SDS011;65257;52.104;4.268;2024-01-07T10:37:02;6.38;;;3.30;;
76423;SDS011;65257;52.104;4.268;2024-01-07T10:39:29;8.05;;;5.30;;
76423;SDS011;65257;52.104;4.268;2024-01-07T10:41:56;8.57;;;4.57;;
76423;SDS011;65257;52.104;4.268;2024-01-07T10:44:25;7.63;;;4.95;;
76423;SDS011;65257;52.104;4.268;2024-01-07T10:47:11;7.85;;;3.95;;
76423;SDS011;65257;52.104;4.268;2024-01-07T10:49:38;8.07;;;4.80;;
76423;SDS011;65257;52.104;4.268;2024-01-07T10:54:38;5.10;;;3.55;;
76423;SDS011;65257;52.104;4.268;2024-01-07T10:57:12;11.13;;;4.95;;
76423;SDS011;65257;52.104;4.268;2024-01-07T10:59:44;7.85;;;5.78;;
76423;SDS011;65257;52.104;4.268;2024-01-07T11:02:20;7.70;;;5.47;;
76423;SDS011;65257;52.104;4.268;2024-01-07T11:07:20;7.10;;;4.97;;
76423;SDS011;65257;52.104;4.268;2024-01-07T11:10:12;6.03;;;4.20;;
76423;SDS011;65257;52.104;4.268;2024-01-07T11:12:42;6.97;;;4.25;;
76423;SDS011;65257;52.104;4.268;2024-01-07T11:15:08;6.35;;;3.25;;
76423;SDS011;65257;52.104;4.268;2024-01-07T11:20:20;6.18;;;3.97;;
76423;SDS011;65257;52.104;4.268;2024-01-07T11:22:50;4.97;;;3.55;;
76423;SDS011;65257;52.104;4.268;2024-01-07T11:25:31;5.78;;;4.25;;
76423;SDS011;65257;52.104;4.268;2024-01-07T11:27:58;5.72;;;3.63;;
76423;SDS011;65257;52.104;4.268;2024-01-07T11:30:25;4.57;;;3.72;;
76423;SDS011;65257;52.104;4.268;2024-01-07T11:32:57;6.07;;;3.80;;
76423;SDS011;65257;52.104;4.268;2024-01-07T11:38:29;6.22;;;4.03;;
76423;SDS011;65257;52.104;4.268;2024-01-07T11:40:55;4.03;;;3.20;;
76423;SDS011;65257;52.104;4.268;2024-01-07T11:43:23;4.30;;;3.50;;
76423;SDS011;65257;52.104;4.268;2024-01-07T11:45:51;4.85;;;3.60;;
76423;SDS011;65257;52.104;4.268;2024-01-07T11:48:19;4.55;;;3.83;;
76423;SDS011;65257;52.104;4.268;2024-01-07T11:50:44;4.97;;;3.47;;
76423;SDS011;65257;52.104;4.268;2024-01-07T11:53:13;4.63;;;3.50;;
76423;SDS011;65257;52.104;4.268;2024-01-07T11:55:44;4.47;;;3.70;;
76423;SDS011;65257;52.104;4.268;2024-01-07T11:58:13;5.85;;;3.78;;
76423;SDS011;65257;52.104;4.268;2024-01-07T12:00:39;4.00;;;3.22;;
76423;SDS011;65257;52.104;4.268;2024-01-07T12:03:04;5.47;;;4.10;;
76423;SDS011;65257;52.104;4.268;2024-01-07T12:05:32;4.05;;;3.03;;
76423;SDS011;65257;52.104;4.268;2024-01-07T12:07:59;4.38;;;3.42;;
76423;SDS011;65257;52.104;4.268;2024-01-07T12:10:25;5.93;;;3.10;;
76423;SDS011;65257;52.104;4.268;2024-01-07T12:12:50;4.38;;;3.30;;
76423;SDS011;65257;52.104;4.268;2024-01-07T12:15:17;3.85;;;2.90;;
76423;SDS011;65257;52.104;4.268;2024-01-07T12:17:58;4.00;;;3.08;;
76423;SDS011;65257;52.104;4.268;2024-01-07T12:20:26;3.80;;;3.05;;
76423;SDS011;65257;52.104;4.268;2024-01-07T12:22:55;4.97;;;3.70;;
76423;SDS011;65257;52.104;4.268;2024-01-07T12:25:22;5.43;;;2.97;;
76423;SDS011;65257;52.104;4.268;2024-01-07T12:28:11;4.97;;;3.33;;
76423;SDS011;65257;52.104;4.268;2024-01-07T12:30:36;4.03;;;3.17;;
76423;SDS011;65257;52.104;4.268;2024-01-07T12:33:04;4.85;;;3.17;;
76423;SDS011;65257;52.104;4.268;2024-01-07T12:35:30;5.07;;;3.65;;
76423;SDS011;65257;52.104;4.268;2024-01-07T12:37:56;4.60;;;2.70;;
76423;SDS011;65257;52.104;4.268;2024-01-07T12:40:21;3.53;;;3.03;;
76423;SDS011;65257;52.104;4.268;2024-01-07T12:42:49;4.43;;;3.05;;
76423;SDS011;65257;52.104;4.268;2024-01-07T12:45:17;5.10;;;3.20;;
76423;SDS011;65257;52.104;4.268;2024-01-07T12:47:43;4.30;;;2.95;;
76423;SDS011;65257;52.104;4.268;2024-01-07T12:50:09;4.65;;;3.30;;
76423;SDS011;65257;52.104;4.268;2024-01-07T12:52:38;4.20;;;2.78;;
76423;SDS011;65257;52.104;4.268;2024-01-07T12:55:08;4.75;;;2.85;;
76423;SDS011;65257;52.104;4.268;2024-01-07T12:57:36;4.03;;;2.75;;
76423;SDS011;65257;52.104;4.268;2024-01-07T13:00:05;3.95;;;2.80;;
76423;SDS011;65257;52.104;4.268;2024-01-07T13:02:32;4.00;;;2.60;;
76423;SDS011;65257;52.104;4.268;2024-01-07T13:05:02;4.35;;;2.22;;
76423;SDS011;65257;52.104;4.268;2024-01-07T13:07:28;2.97;;;2.05;;
76423;SDS011;65257;52.104;4.268;2024-01-07T13:09:53;4.57;;;3.10;;
76423;SDS011;65257;52.104;4.268;2024-01-07T13:12:25;3.42;;;2.35;;
76423;SDS011;65257;52.104;4.268;2024-01-07T13:14:51;2.30;;;1.83;;
76423;SDS011;65257;52.104;4.268;2024-01-07T13:17:26;4.18;;;2.10;;
76423;SDS011;65257;52.104;4.268;2024-01-07T13:19:52;3.95;;;2.50;;
76423;SDS011;65257;52.104;4.268;2024-01-07T13:22:18;3.92;;;2.25;;
76423;SDS011;65257;52.104;4.268;2024-01-07T13:24:43;4.55;;;2.50;;
76423;SDS011;65257;52.104;4.268;2024-01-07T13:27:09;4.65;;;2.60;;
76423;SDS011;65257;52.104;4.268;2024-01-07T13:29:34;4.28;;;2.42;;
76423;SDS011;65257;52.104;4.268;2024-01-07T13:32:00;2.78;;;1.70;;
76423;SDS011;65257;52.104;4.268;2024-01-07T13:34:29;4.50;;;2.33;;
76423;SDS011;65257;52.104;4.268;2024-01-07T13:36:58;5.40;;;2.63;;
76423;SDS011;65257;52.104;4.268;2024-01-07T13:39:26;3.67;;;1.98;;
76423;SDS011;65257;52.104;4.268;2024-01-07T13:41:52;3.30;;;2.20;;
76423;SDS011;65257;52.104;4.268;2024-01-07T13:44:19;3.03;;;2.10;;
76423;SDS011;65257;52.104;4.268;2024-01-07T13:46:45;4.22;;;2.25;;
76423;SDS011;65257;52.104;4.268;2024-01-07T13:49:11;3.17;;;2.00;;
76423;SDS011;65257;52.104;4.268;2024-01-07T13:51:42;3.40;;;1.85;;
76423;SDS011;65257;52.104;4.268;2024-01-07T13:54:07;3.00;;;2.15;;
76423;SDS011;65257;52.104;4.268;2024-01-07T13:56:38;3.47;;;2.15;;
76423;SDS011;65257;52.104;4.268;2024-01-07T13:59:12;2.85;;;1.85;;
76423;SDS011;65257;52.104;4.268;2024-01-07T14:01:38;4.22;;;2.08;;
76423;SDS011;65257;52.104;4.268;2024-01-07T14:04:04;3.88;;;2.25;;
76423;SDS011;65257;52.104;4.268;2024-01-07T14:06:33;3.40;;;1.80;;
76423;SDS011;65257;52.104;4.268;2024-01-07T14:09:00;5.15;;;2.25;;
76423;SDS011;65257;52.104;4.268;2024-01-07T14:11:31;4.05;;;2.50;;
76423;SDS011;65257;52.104;4.268;2024-01-07T14:13:56;3.17;;;1.98;;
76423;SDS011;65257;52.104;4.268;2024-01-07T14:16:22;3.05;;;1.92;;
76423;SDS011;65257;52.104;4.268;2024-01-07T14:18:50;3.65;;;2.78;;
76423;SDS011;65257;52.104;4.268;2024-01-07T14:21:16;3.30;;;2.05;;
76423;SDS011;65257;52.104;4.268;2024-01-07T14:23:47;2.80;;;1.98;;
76423;SDS011;65257;52.104;4.268;2024-01-07T14:26:13;3.00;;;2.20;;
76423;SDS011;65257;52.104;4.268;2024-01-07T14:28:40;3.83;;;2.30;;
76423;SDS011;65257;52.104;4.268;2024-01-07T14:31:05;3.47;;;2.00;;
76423;SDS011;65257;52.104;4.268;2024-01-07T14:33:33;2.40;;;1.67;;
76423;SDS011;65257;52.104;4.268;2024-01-07T14:36:02;3.45;;;1.70;;
76423;SDS011;65257;52.104;4.268;2024-01-07T14:38:32;3.88;;;2.22;;
76423;SDS011;65257;52.104;4.268;2024-01-07T14:40:57;3.47;;;1.73;;
76423;SDS011;65257;52.104;4.268;2024-01-07T14:43:23;4.18;;;2.10;;
76423;SDS011;65257;52.104;4.268;2024-01-07T14:45:49;3.45;;;2.03;;
76423;SDS011;65257;52.104;4.268;2024-01-07T14:48:14;2.67;;;1.45;;
76423;SDS011;65257;52.104;4.268;2024-01-07T14:50:39;3.00;;;1.85;;
76423;SDS011;65257;52.104;4.268;2024-01-07T14:53:05;3.75;;;2.88;;
76423;SDS011;65257;52.104;4.268;2024-01-07T14:55:35;1.95;;;1.45;;
76423;SDS011;65257;52.104;4.268;2024-01-07T14:58:01;2.67;;;1.80;;
76423;SDS011;65257;52.104;4.268;2024-01-07T15:00:26;3.60;;;2.15;;
76423;SDS011;65257;52.104;4.268;2024-01-07T15:02:54;3.20;;;2.65;;
76423;SDS011;65257;52.104;4.268;2024-01-07T15:05:23;4.78;;;2.65;;